sensor_id;sensor_type;location;lat;lon;timestamp;P1;durP1;ratioP1;P2;durP2;ratioP2
71236;SDS011;58984;51.960;5.582;2023-02-13T00:00:05;30.63;;;16.67;;
71236;SDS011;58984;51.960;5.582;2023-02-13T00:02:33;26.98;;;14.93;;
71236;SDS011;58984;51.960;5.582;2023-02-13T00:04:58;25.10;;;16.80;;
71236;SDS011;58984;51.960;5.582;2023-02-13T00:07:24;32.15;;;15.85;;
71236;SDS011;58984;51.960;5.582;2023-02-13T00:09:50;26.92;;;17.45;;
71236;SDS011;58984;51.960;5.582;2023-02-13T00:12:15;27.02;;;15.48;;
71236;SDS011;58984;51.960;5.582;2023-02-13T00:14:41;28.05;;;15.82;;
71236;SDS011;58984;51.960;5.582;2023-02-13T00:17:06;30.90;;;16.73;;
71236;SDS011;58984;51.960;5.582;2023-02-13T00:19:32;25.17;;;15.23;;
71236;SDS011;58984;51.960;5.582;2023-02-13T00:21:57;31.67;;;16.80;;
71236;SDS011;58984;51.960;5.582;2023-02-13T00:24:23;29.70;;;16.48;;
71236;SDS011;58984;51.960;5.582;2023-02-13T00:26:49;26.48;;;15.75;;
71236;SDS011;58984;51.960;5.582;2023-02-13T00:29:15;26.13;;;16.58;;
71236;SDS011;58984;51.960;5.582;2023-02-13T00:31:41;26.75;;;15.15;;
71236;SDS011;58984;51.960;5.582;2023-02-13T00:34:06;31.73;;;16.48;;
71236;SDS011;58984;51.960;5.582;2023-02-13T00:36:32;31.90;;;18.25;;
71236;SDS011;58984;51.960;5.582;2023-02-13T00:38:57;32.90;;;17.02;;
71236;SDS011;58984;51.960;5.582;2023-02-13T00:41:23;31.00;;;16.63;;
71236;SDS011;58984;51.960;5.582;2023-02-13T00:43:48;32.35;;;15.98;;
71236;SDS011;58984;51.960;5.582;2023-02-13T00:46:15;35.92;;;17.77;;
71236;SDS011;58984;51.960;5.582;2023-02-13T00:48:41;23.48;;;15.13;;
71236;SDS011;58984;51.960;5.582;2023-02-13T00:51:07;28.80;;;17.10;;
71236;SDS011;58984;51.960;5.582;2023-02-13T00:53:33;30.77;;;16.00;;
71236;SDS011;58984;51.960;5.582;2023-02-13T00:55:59;28.58;;;16.15;;
71236;SDS011;58984;51.960;5.582;2023-02-13T00:58:25;27.30;;;16.73;;
71236;SDS011;58984;51.960;5.582;2023-02-13T01:00:51;28.23;;;16.27;;
71236;SDS011;58984;51.960;5.582;2023-02-13T01:03:17;31.58;;;17.95;;
71236;SDS011;58984;51.960;5.582;2023-02-13T01:05:43;28.73;;;15.80;;
71236;SDS011;58984;51.960;5.582;2023-02-13T01:08:10;32.42;;;16.83;;
71236;SDS011;58984;51.960;5.582;2023-02-13T01:10:37;26.33;;;15.80;;
71236;SDS011;58984;51.960;5.582;2023-02-13T01:13:03;28.17;;;15.98;;
71236;SDS011;58984;51.960;5.582;2023-02-13T01:15:29;24.95;;;16.45;;
71236;SDS011;58984;51.960;5.582;2023-02-13T01:17:56;28.27;;;16.33;;
71236;SDS011;58984;51.960;5.582;2023-02-13T01:20:23;31.17;;;17.23;;
71236;SDS011;58984;51.960;5.582;2023-02-13T01:22:49;32.83;;;17.70;;
71236;SDS011;58984;51.960;5.582;2023-02-13T01:25:15;29.05;;;16.70;;
71236;SDS011;58984;51.960;5.582;2023-02-13T01:27:40;30.77;;;15.95;;
71236;SDS011;58984;51.960;5.582;2023-02-13T01:30:06;28.05;;;15.95;;
71236;SDS011;58984;51.960;5.582;2023-02-13T01:32:37;33.50;;;16.60;;
71236;SDS011;58984;51.960;5.582;2023-02-13T01:35:07;31.45;;;16.77;;
71236;SDS011;58984;51.960;5.582;2023-02-13T01:37:33;29.45;;;16.33;;
71236;SDS011;58984;51.960;5.582;2023-02-13T01:39:59;28.67;;;16.38;;
71236;SDS011;58984;51.960;5.582;2023-02-13T01:42:26;30.10;;;15.50;;
71236;SDS011;58984;51.960;5.582;2023-02-13T01:45:00;30.95;;;15.75;;
71236;SDS011;58984;51.960;5.582;2023-02-13T01:47:32;34.80;;;16.63;;
71236;SDS011;58984;51.960;5.582;2023-02-13T01:50:42;27.90;;;16.02;;
71236;SDS011;58984;51.960;5.582;2023-02-13T01:55:34;27.52;;;16.45;;
71236;SDS011;58984;51.960;5.582;2023-02-13T02:00:34;34.75;;;16.08;;
71236;SDS011;58984;51.960;5.582;2023-02-13T02:03:02;25.90;;;15.70;;
71236;SDS011;58984;51.960;5.582;2023-02-13T02:05:33;30.98;;;15.95;;
71236;SDS011;58984;51.960;5.582;2023-02-13T02:08:01;27.83;;;16.10;;
71236;SDS011;58984;51.960;5.582;2023-02-13T02:10:30;30.40;;;16.80;;
71236;SDS011;58984;51.960;5.582;2023-02-13T02:13:06;27.33;;;16.80;;
71236;SDS011;58984;51.960;5.582;2023-02-13T02:15:39;28.02;;;15.40;;
71236;SDS011;58984;51.960;5.582;2023-02-13T02:18:13;29.52;;;16.67;;
71236;SDS011;58984;51.960;5.582;2023-02-13T02:29:28;27.90;;;16.20;;
71236;SDS011;58984;51.960;5.582;2023-02-13T02:37:48;29.73;;;15.85;;
71236;SDS011;58984;51.960;5.582;2023-02-13T02:40:29;26.98;;;15.10;;
71236;SDS011;58984;51.960;5.582;2023-02-13T02:46:20;29.10;;;15.75;;
71236;SDS011;58984;51.960;5.582;2023-02-13T02:48:48;26.38;;;15.90;;
71236;SDS011;58984;51.960;5.582;2023-02-13T02:52:04;31.67;;;17.42;;
71236;SDS011;58984;51.960;5.582;2023-02-13T02:54:46;30.88;;;15.60;;
71236;SDS011;58984;51.960;5.582;2023-02-13T02:57:31;32.38;;;17.42;;
71236;SDS011;58984;51.960;5.582;2023-02-13T03:00:18;33.95;;;17.17;;
71236;SDS011;58984;51.960;5.582;2023-02-13T03:03:04;33.95;;;16.77;;
71236;SDS011;58984;51.960;5.582;2023-02-13T03:05:56;28.63;;;16.30;;
71236;SDS011;58984;51.960;5.582;2023-02-13T03:08:39;32.17;;;17.48;;
71236;SDS011;58984;51.960;5.582;2023-02-13T03:11:26;29.85;;;16.77;;
71236;SDS011;58984;51.960;5.582;2023-02-13T03:14:12;27.20;;;17.42;;
71236;SDS011;58984;51.960;5.582;2023-02-13T03:16:41;30.13;;;17.02;;
71236;SDS011;58984;51.960;5.582;2023-02-13T03:22:44;31.02;;;16.75;;
71236;SDS011;58984;51.960;5.582;2023-02-13T03:28:16;27.70;;;16.88;;
71236;SDS011;58984;51.960;5.582;2023-02-13T03:34:05;31.23;;;18.05;;
71236;SDS011;58984;51.960;5.582;2023-02-13T03:36:45;32.80;;;17.55;;
71236;SDS011;58984;51.960;5.582;2023-02-13T03:39:36;28.75;;;15.88;;
71236;SDS011;58984;51.960;5.582;2023-02-13T03:45:17;30.65;;;17.08;;
71236;SDS011;58984;51.960;5.582;2023-02-13T03:48:08;33.30;;;17.88;;
71236;SDS011;58984;51.960;5.582;2023-02-13T03:50:55;34.97;;;18.77;;
71236;SDS011;58984;51.960;5.582;2023-02-13T03:53:22;33.13;;;18.20;;
71236;SDS011;58984;51.960;5.582;2023-02-13T03:55:49;31.27;;;17.73;;
71236;SDS011;58984;51.960;5.582;2023-02-13T03:58:35;31.05;;;18.20;;
71236;SDS011;58984;51.960;5.582;2023-02-13T04:01:26;30.50;;;17.65;;
71236;SDS011;58984;51.960;5.582;2023-02-13T04:03:58;30.42;;;17.17;;
71236;SDS011;58984;51.960;5.582;2023-02-13T04:06:48;33.25;;;19.35;;
71236;SDS011;58984;51.960;5.582;2023-02-13T04:09:22;34.33;;;17.98;;
71236;SDS011;58984;51.960;5.582;2023-02-13T04:14:29;31.98;;;17.58;;
71236;SDS011;58984;51.960;5.582;2023-02-13T04:17:06;31.05;;;17.13;;
71236;SDS011;58984;51.960;5.582;2023-02-13T04:19:35;34.22;;;18.23;;
71236;SDS011;58984;51.960;5.582;2023-02-13T04:22:01;33.45;;;18.63;;
71236;SDS011;58984;51.960;5.582;2023-02-13T04:24:27;32.08;;;18.55;;
71236;SDS011;58984;51.960;5.582;2023-02-13T04:26:53;37.20;;;21.02;;
71236;SDS011;58984;51.960;5.582;2023-02-13T04:29:20;33.63;;;18.80;;
71236;SDS011;58984;51.960;5.582;2023-02-13T04:31:48;40.10;;;20.40;;
71236;SDS011;58984;51.960;5.582;2023-02-13T04:34:13;36.60;;;18.98;;
71236;SDS011;58984;51.960;5.582;2023-02-13T04:36:39;34.97;;;18.80;;
71236;SDS011;58984;51.960;5.582;2023-02-13T04:39:05;35.78;;;19.85;;
71236;SDS011;58984;51.960;5.582;2023-02-13T04:41:31;32.17;;;18.60;;
71236;SDS011;58984;51.960;5.582;2023-02-13T04:43:56;43.65;;;21.40;;
71236;SDS011;58984;51.960;5.582;2023-02-13T04:46:22;38.63;;;20.60;;
71236;SDS011;58984;51.960;5.582;2023-02-13T04:48:48;34.75;;;19.90;;
71236;SDS011;58984;51.960;5.582;2023-02-13T04:51:13;39.40;;;20.10;;
71236;SDS011;58984;51.960;5.582;2023-02-13T04:53:39;34.17;;;19.23;;
71236;SDS011;58984;51.960;5.582;2023-02-13T04:56:04;36.33;;;20.95;;
71236;SDS011;58984;51.960;5.582;2023-02-13T04:58:30;35.40;;;19.85;;
71236;SDS011;58984;51.960;5.582;2023-02-13T05:00:56;33.42;;;20.40;;
71236;SDS011;58984;51.960;5.582;2023-02-13T05:03:21;39.92;;;21.33;;
71236;SDS011;58984;51.960;5.582;2023-02-13T05:05:47;43.33;;;20.75;;
71236;SDS011;58984;51.960;5.582;2023-02-13T05:08:13;39.35;;;20.40;;
71236;SDS011;58984;51.960;5.582;2023-02-13T05:10:39;40.67;;;22.25;;
71236;SDS011;58984;51.960;5.582;2023-02-13T05:13:04;38.75;;;20.25;;
71236;SDS011;58984;51.960;5.582;2023-02-13T05:15:30;32.90;;;19.45;;
71236;SDS011;58984;51.960;5.582;2023-02-13T05:17:56;38.55;;;20.63;;
71236;SDS011;58984;51.960;5.582;2023-02-13T05:20:21;36.03;;;20.08;;
71236;SDS011;58984;51.960;5.582;2023-02-13T05:22:47;36.92;;;20.15;;
71236;SDS011;58984;51.960;5.582;2023-02-13T05:25:34;38.33;;;20.48;;
71236;SDS011;58984;51.960;5.582;2023-02-13T05:28:00;35.72;;;20.45;;
71236;SDS011;58984;51.960;5.582;2023-02-13T05:30:26;40.47;;;21.50;;
71236;SDS011;58984;51.960;5.582;2023-02-13T05:32:52;41.63;;;21.83;;
71236;SDS011;58984;51.960;5.582;2023-02-13T05:35:19;36.58;;;20.30;;
71236;SDS011;58984;51.960;5.582;2023-02-13T05:37:49;36.20;;;21.40;;
71236;SDS011;58984;51.960;5.582;2023-02-13T05:40:15;49.33;;;23.45;;
71236;SDS011;58984;51.960;5.582;2023-02-13T05:42:41;36.28;;;21.42;;
71236;SDS011;58984;51.960;5.582;2023-02-13T05:45:07;41.30;;;21.48;;
71236;SDS011;58984;51.960;5.582;2023-02-13T05:47:34;36.58;;;20.55;;
71236;SDS011;58984;51.960;5.582;2023-02-13T05:49:59;43.53;;;22.55;;
71236;SDS011;58984;51.960;5.582;2023-02-13T05:52:25;36.75;;;21.40;;
71236;SDS011;58984;51.960;5.582;2023-02-13T05:54:51;42.00;;;21.98;;
71236;SDS011;58984;51.960;5.582;2023-02-13T05:57:16;37.45;;;21.33;;
71236;SDS011;58984;51.960;5.582;2023-02-13T05:59:42;38.53;;;20.50;;
71236;SDS011;58984;51.960;5.582;2023-02-13T06:02:08;37.60;;;21.42;;
71236;SDS011;58984;51.960;5.582;2023-02-13T06:04:34;44.00;;;22.88;;
71236;SDS011;58984;51.960;5.582;2023-02-13T06:06:59;43.78;;;22.15;;
71236;SDS011;58984;51.960;5.582;2023-02-13T06:09:25;41.88;;;21.60;;
71236;SDS011;58984;51.960;5.582;2023-02-13T06:11:50;36.58;;;20.90;;
71236;SDS011;58984;51.960;5.582;2023-02-13T06:14:17;34.30;;;21.50;;
71236;SDS011;58984;51.960;5.582;2023-02-13T06:16:42;35.63;;;21.10;;
71236;SDS011;58984;51.960;5.582;2023-02-13T06:19:08;33.20;;;20.25;;
71236;SDS011;58984;51.960;5.582;2023-02-13T06:21:33;35.20;;;21.17;;
71236;SDS011;58984;51.960;5.582;2023-02-13T06:24:02;39.55;;;22.00;;
71236;SDS011;58984;51.960;5.582;2023-02-13T06:26:29;38.92;;;20.55;;
71236;SDS011;58984;51.960;5.582;2023-02-13T06:28:54;40.80;;;20.98;;
71236;SDS011;58984;51.960;5.582;2023-02-13T06:31:20;42.50;;;21.63;;
71236;SDS011;58984;51.960;5.582;2023-02-13T06:33:45;38.63;;;22.20;;
71236;SDS011;58984;51.960;5.582;2023-02-13T06:36:11;37.72;;;20.60;;
71236;SDS011;58984;51.960;5.582;2023-02-13T06:38:37;36.22;;;20.75;;
71236;SDS011;58984;51.960;5.582;2023-02-13T06:41:03;36.10;;;21.92;;
71236;SDS011;58984;51.960;5.582;2023-02-13T06:43:29;45.08;;;22.88;;
71236;SDS011;58984;51.960;5.582;2023-02-13T06:45:54;35.40;;;21.50;;
71236;SDS011;58984;51.960;5.582;2023-02-13T06:48:20;40.40;;;22.10;;
71236;SDS011;58984;51.960;5.582;2023-02-13T06:50:46;36.95;;;20.60;;
71236;SDS011;58984;51.960;5.582;2023-02-13T06:53:11;36.97;;;21.85;;
71236;SDS011;58984;51.960;5.582;2023-02-13T06:55:37;38.65;;;21.23;;
71236;SDS011;58984;51.960;5.582;2023-02-13T06:58:03;42.17;;;21.88;;
71236;SDS011;58984;51.960;5.582;2023-02-13T07:00:29;39.88;;;21.85;;
71236;SDS011;58984;51.960;5.582;2023-02-13T07:03:00;43.97;;;23.33;;
71236;SDS011;58984;51.960;5.582;2023-02-13T07:05:26;37.83;;;22.02;;
71236;SDS011;58984;51.960;5.582;2023-02-13T07:07:52;36.05;;;21.00;;
71236;SDS011;58984;51.960;5.582;2023-02-13T07:10:18;38.95;;;23.10;;
71236;SDS011;58984;51.960;5.582;2023-02-13T07:12:44;37.30;;;22.33;;
71236;SDS011;58984;51.960;5.582;2023-02-13T07:15:09;43.50;;;23.38;;
71236;SDS011;58984;51.960;5.582;2023-02-13T07:17:35;41.00;;;21.30;;
71236;SDS011;58984;51.960;5.582;2023-02-13T07:20:01;45.75;;;23.65;;
71236;SDS011;58984;51.960;5.582;2023-02-13T07:22:29;41.55;;;23.50;;
71236;SDS011;58984;51.960;5.582;2023-02-13T07:24:56;42.20;;;22.33;;
71236;SDS011;58984;51.960;5.582;2023-02-13T07:27:22;38.08;;;21.73;;
71236;SDS011;58984;51.960;5.582;2023-02-13T07:29:48;43.88;;;22.67;;
71236;SDS011;58984;51.960;5.582;2023-02-13T07:32:14;37.97;;;22.80;;
71236;SDS011;58984;51.960;5.582;2023-02-13T07:34:39;43.60;;;22.70;;
71236;SDS011;58984;51.960;5.582;2023-02-13T07:37:05;39.13;;;21.65;;
71236;SDS011;58984;51.960;5.582;2023-02-13T07:39:30;40.15;;;22.40;;
71236;SDS011;58984;51.960;5.582;2023-02-13T07:41:56;39.17;;;22.23;;
71236;SDS011;58984;51.960;5.582;2023-02-13T07:44:21;37.72;;;21.55;;
71236;SDS011;58984;51.960;5.582;2023-02-13T07:46:47;41.70;;;22.35;;
71236;SDS011;58984;51.960;5.582;2023-02-13T07:49:12;41.33;;;22.80;;
71236;SDS011;58984;51.960;5.582;2023-02-13T07:51:38;36.75;;;21.73;;
71236;SDS011;58984;51.960;5.582;2023-02-13T07:54:03;39.97;;;20.25;;
71236;SDS011;58984;51.960;5.582;2023-02-13T07:56:29;37.90;;;21.17;;
71236;SDS011;58984;51.960;5.582;2023-02-13T07:58:55;40.80;;;22.02;;
71236;SDS011;58984;51.960;5.582;2023-02-13T08:01:21;38.85;;;21.40;;
71236;SDS011;58984;51.960;5.582;2023-02-13T08:03:47;38.60;;;21.38;;
71236;SDS011;58984;51.960;5.582;2023-02-13T08:06:16;37.25;;;19.88;;
71236;SDS011;58984;51.960;5.582;2023-02-13T08:08:43;35.95;;;20.00;;
71236;SDS011;58984;51.960;5.582;2023-02-13T08:11:19;32.67;;;19.90;;
71236;SDS011;58984;51.960;5.582;2023-02-13T08:14:07;31.35;;;19.23;;
71236;SDS011;58984;51.960;5.582;2023-02-13T08:16:32;31.88;;;19.80;;
71236;SDS011;58984;51.960;5.582;2023-02-13T08:18:58;35.58;;;20.00;;
71236;SDS011;58984;51.960;5.582;2023-02-13T08:21:23;36.17;;;19.15;;
71236;SDS011;58984;51.960;5.582;2023-02-13T08:23:49;35.88;;;19.65;;
71236;SDS011;58984;51.960;5.582;2023-02-13T08:26:16;35.08;;;18.55;;
71236;SDS011;58984;51.960;5.582;2023-02-13T08:28:41;35.45;;;19.45;;
71236;SDS011;58984;51.960;5.582;2023-02-13T08:31:10;30.52;;;18.02;;
71236;SDS011;58984;51.960;5.582;2023-02-13T08:33:36;35.08;;;19.13;;
71236;SDS011;58984;51.960;5.582;2023-02-13T08:36:02;33.92;;;20.33;;
71236;SDS011;58984;51.960;5.582;2023-02-13T08:38:28;36.22;;;20.00;;
71236;SDS011;58984;51.960;5.582;2023-02-13T08:40:55;31.08;;;18.60;;
71236;SDS011;58984;51.960;5.582;2023-02-13T08:43:21;27.90;;;17.65;;
71236;SDS011;58984;51.960;5.582;2023-02-13T08:45:47;34.30;;;19.23;;
71236;SDS011;58984;51.960;5.582;2023-02-13T08:48:12;29.15;;;18.35;;
71236;SDS011;58984;51.960;5.582;2023-02-13T08:50:38;30.80;;;18.40;;
71236;SDS011;58984;51.960;5.582;2023-02-13T08:53:03;31.75;;;17.80;;
71236;SDS011;58984;51.960;5.582;2023-02-13T08:55:29;35.88;;;18.85;;
71236;SDS011;58984;51.960;5.582;2023-02-13T08:57:57;31.63;;;18.58;;
71236;SDS011;58984;51.960;5.582;2023-02-13T09:00:27;31.33;;;17.90;;
71236;SDS011;58984;51.960;5.582;2023-02-13T09:02:53;34.80;;;18.63;;
71236;SDS011;58984;51.960;5.582;2023-02-13T09:05:18;27.77;;;16.45;;
71236;SDS011;58984;51.960;5.582;2023-02-13T09:07:44;31.48;;;18.67;;
71236;SDS011;58984;51.960;5.582;2023-02-13T09:10:10;30.95;;;18.17;;
71236;SDS011;58984;51.960;5.582;2023-02-13T09:12:35;29.35;;;19.10;;
71236;SDS011;58984;51.960;5.582;2023-02-13T09:15:01;33.13;;;17.83;;
71236;SDS011;58984;51.960;5.582;2023-02-13T09:17:27;33.22;;;18.35;;
71236;SDS011;58984;51.960;5.582;2023-02-13T09:19:53;34.15;;;18.23;;
71236;SDS011;58984;51.960;5.582;2023-02-13T09:22:18;28.58;;;16.85;;
71236;SDS011;58984;51.960;5.582;2023-02-13T09:24:44;28.90;;;17.30;;
71236;SDS011;58984;51.960;5.582;2023-02-13T09:27:09;36.13;;;18.73;;
71236;SDS011;58984;51.960;5.582;2023-02-13T09:29:35;27.42;;;16.77;;
71236;SDS011;58984;51.960;5.582;2023-02-13T09:32:00;28.92;;;16.13;;
71236;SDS011;58984;51.960;5.582;2023-02-13T09:34:26;28.90;;;16.48;;
71236;SDS011;58984;51.960;5.582;2023-02-13T09:36:52;28.75;;;17.35;;
71236;SDS011;58984;51.960;5.582;2023-02-13T09:39:18;22.65;;;16.00;;
71236;SDS011;58984;51.960;5.582;2023-02-13T09:41:44;26.98;;;17.27;;
71236;SDS011;58984;51.960;5.582;2023-02-13T09:47:04;30.00;;;16.60;;
71236;SDS011;58984;51.960;5.582;2023-02-13T09:49:40;28.90;;;16.02;;
71236;SDS011;58984;51.960;5.582;2023-02-13T09:52:10;30.25;;;15.43;;
71236;SDS011;58984;51.960;5.582;2023-02-13T09:54:36;29.02;;;15.68;;
71236;SDS011;58984;51.960;5.582;2023-02-13T10:02:13;28.30;;;16.65;;
71236;SDS011;58984;51.960;5.582;2023-02-13T10:16:28;34.65;;;19.40;;
71236;SDS011;58984;51.960;5.582;2023-02-13T10:21:58;24.45;;;16.80;;
71236;SDS011;58984;51.960;5.582;2023-02-13T10:24:35;32.10;;;16.30;;
71236;SDS011;58984;51.960;5.582;2023-02-13T10:29:55;28.77;;;17.17;;
71236;SDS011;58984;51.960;5.582;2023-02-13T10:35:01;28.13;;;16.58;;
71236;SDS011;58984;51.960;5.582;2023-02-13T10:37:34;35.28;;;17.00;;
71236;SDS011;58984;51.960;5.582;2023-02-13T10:40:01;28.80;;;16.35;;
71236;SDS011;58984;51.960;5.582;2023-02-13T10:50:28;27.13;;;14.75;;
71236;SDS011;58984;51.960;5.582;2023-02-13T10:59:05;29.23;;;15.80;;
71236;SDS011;58984;51.960;5.582;2023-02-13T11:01:43;28.50;;;14.98;;
71236;SDS011;58984;51.960;5.582;2023-02-13T11:04:17;24.88;;;14.75;;
71236;SDS011;58984;51.960;5.582;2023-02-13T11:07:00;22.05;;;13.88;;
71236;SDS011;58984;51.960;5.582;2023-02-13T11:09:27;25.45;;;14.05;;
71236;SDS011;58984;51.960;5.582;2023-02-13T11:11:55;24.23;;;13.38;;
71236;SDS011;58984;51.960;5.582;2023-02-13T11:14:21;24.45;;;14.02;;
71236;SDS011;58984;51.960;5.582;2023-02-13T11:21:47;26.88;;;14.05;;
71236;SDS011;58984;51.960;5.582;2023-02-13T11:24:20;25.65;;;14.40;;
71236;SDS011;58984;51.960;5.582;2023-02-13T11:26:52;23.88;;;12.95;;
71236;SDS011;58984;51.960;5.582;2023-02-13T11:29:29;26.90;;;16.02;;
71236;SDS011;58984;51.960;5.582;2023-02-13T11:32:17;28.05;;;13.95;;
71236;SDS011;58984;51.960;5.582;2023-02-13T11:34:47;21.25;;;13.45;;
71236;SDS011;58984;51.960;5.582;2023-02-13T11:37:20;25.07;;;13.80;;
71236;SDS011;58984;51.960;5.582;2023-02-13T11:39:46;23.98;;;13.65;;
71236;SDS011;58984;51.960;5.582;2023-02-13T11:44:53;20.83;;;12.40;;
71236;SDS011;58984;51.960;5.582;2023-02-13T11:47:43;18.33;;;12.38;;
71236;SDS011;58984;51.960;5.582;2023-02-13T11:50:24;18.92;;;12.68;;
71236;SDS011;58984;51.960;5.582;2023-02-13T11:55:24;24.35;;;13.13;;
71236;SDS011;58984;51.960;5.582;2023-02-13T11:58:00;23.17;;;13.40;;
71236;SDS011;58984;51.960;5.582;2023-02-13T12:03:01;23.67;;;12.57;;
71236;SDS011;58984;51.960;5.582;2023-02-13T12:08:39;21.77;;;12.73;;
71236;SDS011;58984;51.960;5.582;2023-02-13T12:11:13;21.95;;;13.10;;
71236;SDS011;58984;51.960;5.582;2023-02-13T12:13:50;20.40;;;12.77;;
71236;SDS011;58984;51.960;5.582;2023-02-13T12:16:20;22.52;;;12.57;;
71236;SDS011;58984;51.960;5.582;2023-02-13T12:18:50;21.55;;;12.70;;
71236;SDS011;58984;51.960;5.582;2023-02-13T12:24:11;22.73;;;13.52;;
71236;SDS011;58984;51.960;5.582;2023-02-13T12:27:17;21.40;;;12.25;;
71236;SDS011;58984;51.960;5.582;2023-02-13T12:35:25;17.55;;;11.27;;
71236;SDS011;58984;51.960;5.582;2023-02-13T12:57:29;19.92;;;11.48;;
71236;SDS011;58984;51.960;5.582;2023-02-13T13:02:50;18.13;;;11.18;;
71236;SDS011;58984;51.960;5.582;2023-02-13T13:05:26;18.45;;;10.63;;
71236;SDS011;58984;51.960;5.582;2023-02-13T13:16:40;15.50;;;10.63;;
71236;SDS011;58984;51.960;5.582;2023-02-13T13:27:21;17.23;;;10.65;;
71236;SDS011;58984;51.960;5.582;2023-02-13T13:29:55;16.65;;;10.15;;
71236;SDS011;58984;51.960;5.582;2023-02-13T13:32:25;15.10;;;9.98;;
71236;SDS011;58984;51.960;5.582;2023-02-13T13:34:52;22.40;;;11.90;;
71236;SDS011;58984;51.960;5.582;2023-02-13T13:37:27;16.13;;;10.45;;
71236;SDS011;58984;51.960;5.582;2023-02-13T13:42:53;17.63;;;10.48;;
71236;SDS011;58984;51.960;5.582;2023-02-13T13:50:27;15.75;;;10.48;;
71236;SDS011;58984;51.960;5.582;2023-02-13T13:56:01;19.60;;;10.82;;
71236;SDS011;58984;51.960;5.582;2023-02-13T14:01:17;16.83;;;9.43;;
71236;SDS011;58984;51.960;5.582;2023-02-13T14:14:50;18.38;;;10.98;;
71236;SDS011;58984;51.960;5.582;2023-02-13T14:25:41;16.38;;;10.82;;
71236;SDS011;58984;51.960;5.582;2023-02-13T14:28:14;14.82;;;9.50;;
71236;SDS011;58984;51.960;5.582;2023-02-13T14:30:51;17.80;;;10.45;;
71236;SDS011;58984;51.960;5.582;2023-02-13T14:33:29;15.93;;;9.90;;
71236;SDS011;58984;51.960;5.582;2023-02-13T14:36:06;19.13;;;9.80;;
71236;SDS011;58984;51.960;5.582;2023-02-13T14:38:41;13.32;;;8.88;;
71236;SDS011;58984;51.960;5.582;2023-02-13T14:41:22;16.10;;;9.95;;
71236;SDS011;58984;51.960;5.582;2023-02-13T14:47:04;15.02;;;9.85;;
71236;SDS011;58984;51.960;5.582;2023-02-13T14:49:38;15.25;;;9.73;;
71236;SDS011;58984;51.960;5.582;2023-02-13T14:52:15;16.40;;;10.02;;
71236;SDS011;58984;51.960;5.582;2023-02-13T14:54:47;15.18;;;9.82;;
71236;SDS011;58984;51.960;5.582;2023-02-13T14:58:01;14.43;;;9.82;;
71236;SDS011;58984;51.960;5.582;2023-02-13T15:00:16;14.80;;;9.13;;
71236;SDS011;58984;51.960;5.582;2023-02-13T15:02:55;15.23;;;10.00;;
71236;SDS011;58984;51.960;5.582;2023-02-13T15:05:28;14.50;;;9.75;;
71236;SDS011;58984;51.960;5.582;2023-02-13T15:10:54;14.00;;;9.32;;
71236;SDS011;58984;51.960;5.582;2023-02-13T15:13:21;16.70;;;9.25;;
71236;SDS011;58984;51.960;5.582;2023-02-13T15:18:20;15.80;;;10.55;;
71236;SDS011;58984;51.960;5.582;2023-02-13T15:20:50;19.23;;;10.15;;
71236;SDS011;58984;51.960;5.582;2023-02-13T15:23:23;15.95;;;10.25;;
71236;SDS011;58984;51.960;5.582;2023-02-13T15:25:59;15.90;;;9.82;;
71236;SDS011;58984;51.960;5.582;2023-02-13T15:28:30;17.60;;;9.68;;
71236;SDS011;58984;51.960;5.582;2023-02-13T15:30:58;17.98;;;10.65;;
71236;SDS011;58984;51.960;5.582;2023-02-13T15:33:47;19.42;;;10.90;;
71236;SDS011;58984;51.960;5.582;2023-02-13T15:36:15;14.35;;;9.95;;
71236;SDS011;58984;51.960;5.582;2023-02-13T15:38:41;21.23;;;11.20;;
71236;SDS011;58984;51.960;5.582;2023-02-13T15:41:08;21.27;;;11.70;;
71236;SDS011;58984;51.960;5.582;2023-02-13T15:43:48;23.45;;;12.05;;
71236;SDS011;58984;51.960;5.582;2023-02-13T15:48:58;19.75;;;12.15;;
71236;SDS011;58984;51.960;5.582;2023-02-13T15:51:37;23.80;;;12.02;;
71236;SDS011;58984;51.960;5.582;2023-02-13T15:54:04;20.25;;;12.13;;
71236;SDS011;58984;51.960;5.582;2023-02-13T15:56:32;20.63;;;12.57;;
71236;SDS011;58984;51.960;5.582;2023-02-13T15:58:58;18.40;;;12.30;;
71236;SDS011;58984;51.960;5.582;2023-02-13T16:01:25;18.58;;;11.63;;
71236;SDS011;58984;51.960;5.582;2023-02-13T16:04:01;26.52;;;13.70;;
71236;SDS011;58984;51.960;5.582;2023-02-13T16:06:30;18.77;;;12.85;;
71236;SDS011;58984;51.960;5.582;2023-02-13T16:08:57;19.77;;;12.90;;
71236;SDS011;58984;51.960;5.582;2023-02-13T16:11:27;18.17;;;12.43;;
71236;SDS011;58984;51.960;5.582;2023-02-13T16:14:03;20.58;;;12.80;;
71236;SDS011;58984;51.960;5.582;2023-02-13T16:16:34;22.45;;;13.18;;
71236;SDS011;58984;51.960;5.582;2023-02-13T16:19:15;22.15;;;13.55;;
71236;SDS011;58984;51.960;5.582;2023-02-13T16:21:46;22.00;;;14.13;;
71236;SDS011;58984;51.960;5.582;2023-02-13T16:24:13;22.98;;;12.85;;
71236;SDS011;58984;51.960;5.582;2023-02-13T16:26:40;20.55;;;13.43;;
71236;SDS011;58984;51.960;5.582;2023-02-13T16:29:12;23.60;;;14.48;;
71236;SDS011;58984;51.960;5.582;2023-02-13T16:31:43;21.25;;;13.65;;
71236;SDS011;58984;51.960;5.582;2023-02-13T16:34:12;25.40;;;14.63;;
71236;SDS011;58984;51.960;5.582;2023-02-13T16:36:39;21.20;;;13.15;;
71236;SDS011;58984;51.960;5.582;2023-02-13T16:41:51;25.27;;;13.27;;
71236;SDS011;58984;51.960;5.582;2023-02-13T16:44:21;22.23;;;13.95;;
71236;SDS011;58984;51.960;5.582;2023-02-13T16:46:46;23.45;;;12.55;;
71236;SDS011;58984;51.960;5.582;2023-02-13T16:49:26;23.83;;;13.43;;
71236;SDS011;58984;51.960;5.582;2023-02-13T16:54:48;20.48;;;13.15;;
71236;SDS011;58984;51.960;5.582;2023-02-13T16:57:19;20.73;;;12.70;;
71236;SDS011;58984;51.960;5.582;2023-02-13T17:07:24;26.75;;;14.32;;
71236;SDS011;58984;51.960;5.582;2023-02-13T17:10:03;23.60;;;13.93;;
71236;SDS011;58984;51.960;5.582;2023-02-13T17:12:41;20.60;;;12.77;;
71236;SDS011;58984;51.960;5.582;2023-02-13T17:15:09;19.55;;;12.52;;
71236;SDS011;58984;51.960;5.582;2023-02-13T17:17:37;21.70;;;13.52;;
71236;SDS011;58984;51.960;5.582;2023-02-13T17:20:03;23.00;;;13.77;;
71236;SDS011;58984;51.960;5.582;2023-02-13T17:22:35;20.17;;;13.80;;
71236;SDS011;58984;51.960;5.582;2023-02-13T17:25:07;20.58;;;14.38;;
71236;SDS011;58984;51.960;5.582;2023-02-13T17:27:40;27.45;;;14.23;;
71236;SDS011;58984;51.960;5.582;2023-02-13T17:30:07;23.65;;;14.00;;
71236;SDS011;58984;51.960;5.582;2023-02-13T17:32:36;24.83;;;13.05;;
71236;SDS011;58984;51.960;5.582;2023-02-13T17:35:02;24.67;;;14.68;;
71236;SDS011;58984;51.960;5.582;2023-02-13T17:37:28;22.13;;;14.05;;
71236;SDS011;58984;51.960;5.582;2023-02-13T17:39:54;24.52;;;13.95;;
71236;SDS011;58984;51.960;5.582;2023-02-13T17:42:24;24.60;;;14.70;;
71236;SDS011;58984;51.960;5.582;2023-02-13T17:44:52;27.85;;;15.23;;
71236;SDS011;58984;51.960;5.582;2023-02-13T17:47:19;25.85;;;14.30;;
71236;SDS011;58984;51.960;5.582;2023-02-13T17:49:45;24.90;;;15.38;;
71236;SDS011;58984;51.960;5.582;2023-02-13T17:52:19;22.30;;;13.85;;
71236;SDS011;58984;51.960;5.582;2023-02-13T17:54:48;24.38;;;14.45;;
71236;SDS011;58984;51.960;5.582;2023-02-13T17:57:14;22.40;;;13.60;;